sensor_id;sensor_type;location;lat;lon;timestamp;pressure;altitude;pressure_sealevel;temperature;humidity
19210;BME280;9738;51.654;14.238;2023-03-14T00:01:24;98309.41;;;10.51;100.00
19210;BME280;9738;51.654;14.238;2023-03-14T00:03:50;98326.84;;;10.47;100.00
19210;BME280;9738;51.654;14.238;2023-03-14T00:06:17;98314.53;;;10.46;100.00
19210;BME280;9738;51.654;14.238;2023-03-14T00:08:44;98324.38;;;10.45;100.00
19210;BME280;9738;51.654;14.238;2023-03-14T00:11:16;98296.88;;;10.45;100.00
19210;BME280;9738;51.654;14.238;2023-03-14T00:13:42;98292.56;;;10.44;100.00
19210;BME280;9738;51.654;14.238;2023-03-14T00:16:11;98282.50;;;10.46;100.00
19210;BME280;9738;51.654;14.238;2023-03-14T00:18:38;98287.22;;;10.44;100.00
19210;BME280;9738;51.654;14.238;2023-03-14T00:21:05;98279.00;;;10.45;100.00
19210;BME280;9738;51.654;14.238;2023-03-14T00:23:33;98279.22;;;10.50;100.00
19210;BME280;9738;51.654;14.238;2023-03-14T00:26:04;98291.34;;;10.53;100.00
19210;BME280;9738;51.654;14.238;2023-03-14T00:28:30;98297.28;;;10.55;100.00
19210;BME280;9738;51.654;14.238;2023-03-14T00:30:57;98297.28;;;10.55;100.00
19210;BME280;9738;51.654;14.238;2023-03-14T00:33:23;98303.25;;;10.57;100.00
19210;BME280;9738;51.654;14.238;2023-03-14T00:35:56;98313.72;;;10.59;100.00
19210;BME280;9738;51.654;14.238;2023-03-14T00:38:24;98313.94;;;10.57;100.00
19210;BME280;9738;51.654;14.238;2023-03-14T00:40:51;98308.19;;;10.60;100.00
19210;BME280;9738;51.654;14.238;2023-03-14T00:43:17;98305.72;;;10.59;100.00
19210;BME280;9738;51.654;14.238;2023-03-14T00:45:44;98297.09;;;10.57;100.00
19210;BME280;9738;51.654;14.238;2023-03-14T00:48:09;98303.66;;;10.61;100.00
19210;BME280;9738;51.654;14.238;2023-03-14T00:50:35;98302.44;;;10.57;100.00
19210;BME280;9738;51.654;14.238;2023-03-14T00:53:02;98313.13;;;10.63;100.00
19210;BME280;9738;51.654;14.238;2023-03-14T00:55:27;98314.34;;;10.61;100.00
19210;BME280;9738;51.654;14.238;2023-03-14T00:57:53;98304.47;;;10.61;100.00
19210;BME280;9738;51.654;14.238;2023-03-14T01:00:19;98301.19;;;10.59;100.00
19210;BME280;9738;51.654;14.238;2023-03-14T01:02:45;98309.41;;;10.58;100.00
19210;BME280;9738;51.654;14.238;2023-03-14T01:05:11;98306.53;;;10.59;100.00
19210;BME280;9738;51.654;14.238;2023-03-14T01:07:37;98295.03;;;10.59;100.00
19210;BME280;9738;51.654;14.238;2023-03-14T01:10:05;98287.66;;;10.61;100.00
19210;BME280;9738;51.654;14.238;2023-03-14T01:12:31;98283.75;;;10.63;100.00
19210;BME280;9738;51.654;14.238;2023-03-14T01:14:57;98273.69;;;10.65;100.00
19210;BME280;9738;51.654;14.238;2023-03-14T01:17:23;98288.06;;;10.64;100.00
19210;BME280;9738;51.654;14.238;2023-03-14T01:19:49;98314.13;;;10.62;100.00
19210;BME280;9738;51.654;14.238;2023-03-14T01:22:15;98316.78;;;10.62;100.00
19210;BME280;9738;51.654;14.238;2023-03-14T01:24:41;98314.34;;;10.61;100.00
19210;BME280;9738;51.654;14.238;2023-03-14T01:27:07;98324.63;;;10.64;100.00
19210;BME280;9738;51.654;14.238;2023-03-14T01:29:33;98318.47;;;10.63;100.00
19210;BME280;9738;51.654;14.238;2023-03-14T01:31:59;98309.44;;;10.64;100.00
19210;BME280;9738;51.654;14.238;2023-03-14T01:34:24;98302.44;;;10.63;100.00
19210;BME280;9738;51.654;14.238;2023-03-14T01:36:51;98292.59;;;10.57;100.00
19210;BME280;9738;51.654;14.238;2023-03-14T01:39:16;98304.47;;;10.54;100.00
19210;BME280;9738;51.654;14.238;2023-03-14T01:41:42;98305.50;;;10.60;100.00
19210;BME280;9738;51.654;14.238;2023-03-14T01:44:12;98299.34;;;10.60;100.00
19210;BME280;9738;51.654;14.238;2023-03-14T01:46:38;98292.97;;;10.61;100.00
19210;BME280;9738;51.654;14.238;2023-03-14T01:49:18;98304.47;;;10.61;100.00
19210;BME280;9738;51.654;14.238;2023-03-14T01:52:00;98293.63;;;10.56;100.00
19210;BME280;9738;51.654;14.238;2023-03-14T01:54:39;98294.22;;;10.58;100.00
19210;BME280;9738;51.654;14.238;2023-03-14T01:57:16;98293.63;;;10.56;100.00
19210;BME280;9738;51.654;14.238;2023-03-14T01:59:46;98295.66;;;10.54;100.00
19210;BME280;9738;51.654;14.238;2023-03-14T02:02:15;98307.34;;;10.53;100.00
19210;BME280;9738;51.654;14.238;2023-03-14T02:04:41;98307.34;;;10.53;100.00
19210;BME280;9738;51.654;14.238;2023-03-14T02:07:17;98304.06;;;10.51;100.00
19210;BME280;9738;51.654;14.238;2023-03-14T02:09:46;98307.78;;;10.57;100.00
19210;BME280;9738;51.654;14.238;2023-03-14T02:12:14;98317.81;;;10.54;100.00
19210;BME280;9738;51.654;14.238;2023-03-14T02:14:41;98308.78;;;10.55;100.00
19210;BME280;9738;51.654;14.238;2023-03-14T02:17:14;98302.84;;;10.53;100.00
19210;BME280;9738;51.654;14.238;2023-03-14T02:22:34;98275.31;;;10.60;100.00
19210;BME280;9738;51.654;14.238;2023-03-14T02:27:46;98278.41;;;10.57;100.00
19210;BME280;9738;51.654;14.238;2023-03-14T02:30:21;98272.44;;;10.61;100.00
19210;BME280;9738;51.654;14.238;2023-03-14T02:32:51;98272.06;;;10.58;100.00
19210;BME280;9738;51.654;14.238;2023-03-14T02:35:21;98274.28;;;10.61;100.00
19210;BME280;9738;51.654;14.238;2023-03-14T02:37:53;98277.38;;;10.58;100.00
19210;BME280;9738;51.654;14.238;2023-03-14T02:40:20;98272.44;;;10.61;100.00
19210;BME280;9738;51.654;14.238;2023-03-14T02:42:46;98265.06;;;10.63;100.00
19210;BME280;9738;51.654;14.238;2023-03-14T02:47:49;98255.81;;;10.66;100.00
19210;BME280;9738;51.654;14.238;2023-03-14T02:50:21;98247.41;;;10.69;100.00
19210;BME280;9738;51.654;14.238;2023-03-14T02:52:48;98253.16;;;10.66;100.00
19210;BME280;9738;51.654;14.238;2023-03-14T02:55:14;98255.41;;;10.62;100.00
19210;BME280;9738;51.654;14.238;2023-03-14T02:57:41;98256.03;;;10.64;100.00
19210;BME280;9738;51.654;14.238;2023-03-14T03:00:07;98264.66;;;10.66;100.00
19210;BME280;9738;51.654;14.238;2023-03-14T03:02:33;98265.06;;;10.70;100.00
19210;BME280;9738;51.654;14.238;2023-03-14T03:05:00;98264.66;;;10.66;100.00
19210;BME280;9738;51.654;14.238;2023-03-14T03:07:25;98268.97;;;10.67;100.00
19210;BME280;9738;51.654;14.238;2023-03-14T03:09:51;98266.28;;;10.67;100.00
19210;BME280;9738;51.654;14.238;2023-03-14T03:12:17;98264.66;;;10.66;100.00
19210;BME280;9738;51.654;14.238;2023-03-14T03:14:43;98265.69;;;10.65;100.00
19210;BME280;9738;51.654;14.238;2023-03-14T03:17:09;98264.25;;;10.63;100.00
19210;BME280;9738;51.654;14.238;2023-03-14T03:19:35;98265.47;;;10.60;100.00
19210;BME280;9738;51.654;14.238;2023-03-14T03:22:01;98256.44;;;10.54;100.00
19210;BME280;9738;51.654;14.238;2023-03-14T03:24:27;98243.50;;;10.58;100.00
19210;BME280;9738;51.654;14.238;2023-03-14T03:26:53;98255.59;;;10.61;100.00
19210;BME280;9738;51.654;14.238;2023-03-14T03:29:19;98254.41;;;10.57;100.00
19210;BME280;9738;51.654;14.238;2023-03-14T03:31:45;98246.56;;;10.55;100.00
19210;BME280;9738;51.654;14.238;2023-03-14T03:34:12;98240.84;;;10.51;100.00
19210;BME280;9738;51.654;14.238;2023-03-14T03:36:38;98234.47;;;10.52;100.00
19210;BME280;9738;51.654;14.238;2023-03-14T03:39:04;98238.38;;;10.50;100.00
19210;BME280;9738;51.654;14.238;2023-03-14T03:41:31;98229.34;;;10.51;100.00
19210;BME280;9738;51.654;14.238;2023-03-14T03:43:56;98226.03;;;10.49;100.00
19210;BME280;9738;51.654;14.238;2023-03-14T03:46:22;98226.69;;;10.51;100.00
19210;BME280;9738;51.654;14.238;2023-03-14T03:48:54;98230.97;;;10.45;100.00
19210;BME280;9738;51.654;14.238;2023-03-14T03:51:20;98212.09;;;10.47;100.00
19210;BME280;9738;51.654;14.238;2023-03-14T03:53:46;98219.06;;;10.48;100.00
19210;BME280;9738;51.654;14.238;2023-03-14T03:56:12;98204.69;;;10.49;100.00
19210;BME280;9738;51.654;14.238;2023-03-14T03:58:38;98206.34;;;10.50;100.00
19210;BME280;9738;51.654;14.238;2023-03-14T04:01:05;98212.50;;;10.50;100.00
19210;BME280;9738;51.654;14.238;2023-03-14T04:03:32;98217.84;;;10.50;100.00
19210;BME280;9738;51.654;14.238;2023-03-14T04:08:25;98216.81;;;10.58;100.00
19210;BME280;9738;51.654;14.238;2023-03-14T04:10:55;98210.66;;;10.58;100.00
19210;BME280;9738;51.654;14.238;2023-03-14T04:13:21;98199.78;;;10.59;100.00
19210;BME280;9738;51.654;14.238;2023-03-14T04:15:47;98189.91;;;10.60;100.00
19210;BME280;9738;51.654;14.238;2023-03-14T04:18:13;98192.34;;;10.68;100.00
19210;BME280;9738;51.654;14.238;2023-03-14T04:20:39;98197.09;;;10.66;100.00
19210;BME280;9738;51.654;14.238;2023-03-14T04:23:04;98206.94;;;10.65;100.00
19210;BME280;9738;51.654;14.238;2023-03-14T04:25:31;98188.69;;;10.69;100.00
19210;BME280;9738;51.654;14.238;2023-03-14T04:27:57;98177.59;;;10.65;100.00
19210;BME280;9738;51.654;14.238;2023-03-14T04:30:22;98188.25;;;10.65;100.00
19210;BME280;9738;51.654;14.238;2023-03-14T04:32:49;98198.13;;;10.65;100.00
19210;BME280;9738;51.654;14.238;2023-03-14T04:35:15;98198.34;;;10.63;100.00
19210;BME280;9738;51.654;14.238;2023-03-14T04:37:40;98205.91;;;10.66;100.00
19210;BME280;9738;51.654;14.238;2023-03-14T04:40:10;98200.19;;;10.69;100.00
19210;BME280;9738;51.654;14.238;2023-03-14T04:42:36;98191.16;;;10.70;100.00
19210;BME280;9738;51.654;14.238;2023-03-14T04:45:02;98205.69;;;10.74;100.00
19210;BME280;9738;51.654;14.238;2023-03-14T04:47:28;98198.94;;;10.78;100.00
19210;BME280;9738;51.654;14.238;2023-03-14T04:49:54;98201.00;;;10.76;100.00
19210;BME280;9738;51.654;14.238;2023-03-14T04:52:20;98193.38;;;10.73;100.00
19210;BME280;9738;51.654;14.238;2023-03-14T04:54:46;98194.41;;;10.72;100.00
19210;BME280;9738;51.654;14.238;2023-03-14T04:57:12;98200.56;;;10.73;100.00
19210;BME280;9738;51.654;14.238;2023-03-14T04:59:37;98196.69;;;10.75;100.00
19210;BME280;9738;51.654;14.238;2023-03-14T05:02:04;98200.38;;;10.74;100.00
19210;BME280;9738;51.654;14.238;2023-03-14T05:04:30;98196.47;;;10.77;100.00
19210;BME280;9738;51.654;14.238;2023-03-14T05:06:58;98189.06;;;10.79;100.00
19210;BME280;9738;51.654;14.238;2023-03-14T05:09:25;98181.06;;;10.72;100.00
19210;BME280;9738;51.654;14.238;2023-03-14T05:11:50;98178.81;;;10.69;100.00
19210;BME280;9738;51.654;14.238;2023-03-14T05:14:16;98172.25;;;10.72;100.00
19210;BME280;9738;51.654;14.238;2023-03-14T05:16:42;98173.06;;;10.72;100.00
19210;BME280;9738;51.654;14.238;2023-03-14T05:19:08;98167.72;;;10.72;100.00
19210;BME280;9738;51.654;14.238;2023-03-14T05:21:35;98155.78;;;10.75;100.00
19210;BME280;9738;51.654;14.238;2023-03-14T05:24:01;98152.72;;;10.71;100.00
19210;BME280;9738;51.654;14.238;2023-03-14T05:26:27;98153.78;;;10.70;100.00
19210;BME280;9738;51.654;14.238;2023-03-14T05:28:53;98145.56;;;10.65;100.00
19210;BME280;9738;51.654;14.238;2023-03-14T05:31:19;98147.19;;;10.73;100.00
19210;BME280;9738;51.654;14.238;2023-03-14T05:33:45;98155.19;;;10.73;100.00
19210;BME280;9738;51.654;14.238;2023-03-14T05:36:11;98154.97;;;10.74;100.00
19210;BME280;9738;51.654;14.238;2023-03-14T05:38:37;98152.94;;;10.70;100.00
19210;BME280;9738;51.654;14.238;2023-03-14T05:41:03;98161.13;;;10.68;100.00
19210;BME280;9738;51.654;14.238;2023-03-14T05:43:29;98167.50;;;10.67;100.00
19210;BME280;9738;51.654;14.238;2023-03-14T05:45:55;98157.47;;;10.63;100.00
19210;BME280;9738;51.654;14.238;2023-03-14T05:48:21;98151.28;;;10.62;100.00
19210;BME280;9738;51.654;14.238;2023-03-14T05:50:47;98159.94;;;10.64;100.00
19210;BME280;9738;51.654;14.238;2023-03-14T05:53:14;98163.19;;;10.73;100.00
19210;BME280;9738;51.654;14.238;2023-03-14T05:55:40;98153.34;;;10.67;100.00
19210;BME280;9738;51.654;14.238;2023-03-14T05:58:06;98157.25;;;10.71;100.00
19210;BME280;9738;51.654;14.238;2023-03-14T06:00:32;98155.41;;;10.65;100.00
19210;BME280;9738;51.654;14.238;2023-03-14T06:02:58;98163.44;;;10.65;100.00
19210;BME280;9738;51.654;14.238;2023-03-14T06:05:24;98161.13;;;10.68;100.00
19210;BME280;9738;51.654;14.238;2023-03-14T06:07:50;98151.72;;;10.66;100.00
19210;BME280;9738;51.654;14.238;2023-03-14T06:10:16;98158.06;;;10.71;100.00
19210;BME280;9738;51.654;14.238;2023-03-14T06:12:41;98157.66;;;10.68;100.00
19210;BME280;9738;51.654;14.238;2023-03-14T06:15:08;98162.81;;;10.76;100.00
19210;BME280;9738;51.654;14.238;2023-03-14T06:17:34;98167.94;;;10.71;100.00
19210;BME280;9738;51.654;14.238;2023-03-14T06:20:00;98168.16;;;10.69;100.00
19210;BME280;9738;51.654;14.238;2023-03-14T06:22:26;98175.72;;;10.72;100.00
19210;BME280;9738;51.654;14.238;2023-03-14T06:24:52;98178.63;;;10.71;100.00
19210;BME280;9738;51.654;14.238;2023-03-14T06:27:17;98174.69;;;10.73;100.00
19210;BME280;9738;51.654;14.238;2023-03-14T06:29:44;98188.03;;;10.73;100.00
19210;BME280;9738;51.654;14.238;2023-03-14T06:32:10;98193.16;;;10.75;100.00
19210;BME280;9738;51.654;14.238;2023-03-14T06:34:35;98189.66;;;10.81;100.00
19210;BME280;9738;51.654;14.238;2023-03-14T06:37:02;98192.75;;;10.85;100.00
19210;BME280;9738;51.654;14.238;2023-03-14T06:39:27;98192.97;;;10.90;100.00
19210;BME280;9738;51.654;14.238;2023-03-14T06:41:53;98188.66;;;10.89;100.00
19210;BME280;9738;51.654;14.238;2023-03-14T06:44:19;98192.72;;;10.98;100.00
19210;BME280;9738;51.654;14.238;2023-03-14T06:46:45;98188.19;;;11.05;100.00
19210;BME280;9738;51.654;14.238;2023-03-14T06:49:11;98193.72;;;11.10;100.00
19210;BME280;9738;51.654;14.238;2023-03-14T06:51:37;98198.03;;;11.18;100.00
19210;BME280;9738;51.654;14.238;2023-03-14T06:54:03;98206.25;;;11.16;100.00
19210;BME280;9738;51.654;14.238;2023-03-14T06:56:29;98197.00;;;11.19;100.00
19210;BME280;9738;51.654;14.238;2023-03-14T06:58:55;98213.00;;;11.25;100.00
19210;BME280;9738;51.654;14.238;2023-03-14T07:01:24;98216.09;;;11.29;100.00
19210;BME280;9738;51.654;14.238;2023-03-14T07:03:50;98216.31;;;11.27;100.00
19210;BME280;9738;51.654;14.238;2023-03-14T07:06:17;98214.44;;;11.34;100.00
19210;BME280;9738;51.654;14.238;2023-03-14T07:08:43;98224.28;;;11.41;100.00
19210;BME280;9738;51.654;14.238;2023-03-14T07:11:09;98214.00;;;11.37;100.00
19210;BME280;9738;51.654;14.238;2023-03-14T07:13:38;98215.22;;;11.42;100.00
19210;BME280;9738;51.654;14.238;2023-03-14T07:16:04;98220.97;;;11.52;100.00
19210;BME280;9738;51.654;14.238;2023-03-14T07:18:30;98221.81;;;11.46;100.00
19210;BME280;9738;51.654;14.238;2023-03-14T07:20:57;98223.16;;;11.61;100.00
19210;BME280;9738;51.654;14.238;2023-03-14T07:23:22;98232.22;;;11.60;100.00
19210;BME280;9738;51.654;14.238;2023-03-14T07:25:48;98229.13;;;11.57;100.00
19210;BME280;9738;51.654;14.238;2023-03-14T07:28:14;98225.47;;;11.58;100.00
19210;BME280;9738;51.654;14.238;2023-03-14T07:30:40;98225.25;;;11.53;100.00
19210;BME280;9738;51.654;14.238;2023-03-14T07:33:06;98223.81;;;11.50;100.00
19210;BME280;9738;51.654;14.238;2023-03-14T07:35:32;98230.84;;;11.38;100.00
19210;BME280;9738;51.654;14.238;2023-03-14T07:37:58;98223.84;;;11.44;100.00
19210;BME280;9738;51.654;14.238;2023-03-14T07:40:23;98224.69;;;11.37;100.00
19210;BME280;9738;51.654;14.238;2023-03-14T07:42:50;98222.22;;;11.36;100.00
19210;BME280;9738;51.654;14.238;2023-03-14T07:45:16;98224.09;;;11.35;100.00
19210;BME280;9738;51.654;14.238;2023-03-14T07:47:42;98229.00;;;11.38;100.00
19210;BME280;9738;51.654;14.238;2023-03-14T07:50:09;98217.91;;;11.35;100.00
19210;BME280;9738;51.654;14.238;2023-03-14T07:52:35;98218.50;;;11.44;100.00
19210;BME280;9738;51.654;14.238;2023-03-14T07:55:00;98224.09;;;11.35;100.00
19210;BME280;9738;51.654;14.238;2023-03-14T07:57:27;98223.47;;;11.33;100.00
19210;BME280;9738;51.654;14.238;2023-03-14T07:59:52;98224.28;;;11.41;100.00
19210;BME280;9738;51.654;14.238;2023-03-14T08:02:18;98220.13;;;11.45;100.00
19210;BME280;9738;51.654;14.238;2023-03-14T08:04:48;98215.63;;;11.38;100.00
19210;BME280;9738;51.654;14.238;2023-03-14T08:07:14;98213.56;;;11.47;100.00
19210;BME280;9738;51.654;14.238;2023-03-14T08:09:40;98213.34;;;11.49;100.00
19210;BME280;9738;51.654;14.238;2023-03-14T08:12:07;98210.47;;;11.44;100.00
19210;BME280;9738;51.654;14.238;2023-03-14T08:14:32;98219.28;;;11.51;100.00
19210;BME280;9738;51.654;14.238;2023-03-14T08:16:58;98213.75;;;11.52;100.00
19210;BME280;9738;51.654;14.238;2023-03-14T08:19:25;98213.13;;;11.50;100.00
19210;BME280;9738;51.654;14.238;2023-03-14T08:21:51;98220.13;;;11.58;100.00
19210;BME280;9738;51.654;14.238;2023-03-14T08:24:17;98216.97;;;11.68;100.00
19210;BME280;9738;51.654;14.238;2023-03-14T08:26:43;98209.72;;;11.75;100.00
19210;BME280;9738;51.654;14.238;2023-03-14T08:29:09;98215.91;;;11.75;100.00
19210;BME280;9738;51.654;14.238;2023-03-14T08:31:35;98200.66;;;11.76;100.00
19210;BME280;9738;51.654;14.238;2023-03-14T08:34:02;98205.66;;;11.72;100.00
19210;BME280;9738;51.654;14.238;2023-03-14T08:36:28;98215.13;;;11.68;100.00
19210;BME280;9738;51.654;14.238;2023-03-14T08:38:54;98220.84;;;11.85;100.00
19210;BME280;9738;51.654;14.238;2023-03-14T08:41:20;98214.84;;;11.83;100.00
19210;BME280;9738;51.654;14.238;2023-03-14T08:43:46;98210.72;;;11.87;100.00
19210;BME280;9738;51.654;14.238;2023-03-14T08:46:11;98214.16;;;12.01;100.00
19210;BME280;9738;51.654;14.238;2023-03-14T08:48:39;98212.09;;;12.03;100.00
19210;BME280;9738;51.654;14.238;2023-03-14T08:51:10;98214.94;;;12.08;100.00
19210;BME280;9738;51.654;14.238;2023-03-14T08:53:38;98216.31;;;12.17;100.00
19210;BME280;9738;51.654;14.238;2023-03-14T08:56:05;98220.78;;;12.30;100.00
19210;BME280;9738;51.654;14.238;2023-03-14T08:58:34;98220.53;;;12.31;100.00
19210;BME280;9738;51.654;14.238;2023-03-14T09:01:03;98217.66;;;12.33;100.00
19210;BME280;9738;51.654;14.238;2023-03-14T09:03:29;98212.69;;;12.36;100.00
19210;BME280;9738;51.654;14.238;2023-03-14T09:05:55;98216.47;;;12.29;100.00
19210;BME280;9738;51.654;14.238;2023-03-14T09:08:21;98219.41;;;12.45;100.00
19210;BME280;9738;51.654;14.238;2023-03-14T09:10:47;98218.88;;;12.37;100.00
19210;BME280;9738;51.654;14.238;2023-03-14T09:13:13;98223.19;;;12.38;100.00
19210;BME280;9738;51.654;14.238;2023-03-14T09:15:39;98231.16;;;12.44;100.00
19210;BME280;9738;51.654;14.238;2023-03-14T09:18:07;98225.69;;;12.58;100.00
19210;BME280;9738;51.654;14.238;2023-03-14T09:20:33;98229.75;;;12.67;100.00
19210;BME280;9738;51.654;14.238;2023-03-14T09:22:59;98221.91;;;12.65;100.00
19210;BME280;9738;51.654;14.238;2023-03-14T09:25:25;98226.63;;;12.70;100.00
19210;BME280;9738;51.654;14.238;2023-03-14T09:27:51;98221.06;;;12.71;100.00
19210;BME280;9738;51.654;14.238;2023-03-14T09:30:17;98226.44;;;12.90;100.00
19210;BME280;9738;51.654;14.238;2023-03-14T09:32:43;98236.38;;;13.08;100.00
19210;BME280;9738;51.654;14.238;2023-03-14T09:35:08;98228.59;;;13.06;100.00
19210;BME280;9738;51.654;14.238;2023-03-14T09:37:35;98227.69;;;13.12;100.00
19210;BME280;9738;51.654;14.238;2023-03-14T09:40:01;98229.81;;;13.04;100.00
19210;BME280;9738;51.654;14.238;2023-03-14T09:42:36;98227.16;;;13.04;100.00
19210;BME280;9738;51.654;14.238;2023-03-14T09:45:07;98227.31;;;13.09;100.00
19210;BME280;9738;51.654;14.238;2023-03-14T09:47:36;98223.50;;;13.16;100.00
19210;BME280;9738;51.654;14.238;2023-03-14T09:50:02;98224.94;;;13.19;100.00
19210;BME280;9738;51.654;14.238;2023-03-14T09:52:32;98226.78;;;13.25;100.00
19210;BME280;9738;51.654;14.238;2023-03-14T09:55:06;98230.28;;;13.25;100.00
19210;BME280;9738;51.654;14.238;2023-03-14T09:57:37;98227.19;;;13.22;100.00
19210;BME280;9738;51.654;14.238;2023-03-14T10:00:14;98235.09;;;13.17;100.00
19210;BME280;9738;51.654;14.238;2023-03-14T10:02:43;98239.13;;;13.26;100.00
19210;BME280;9738;51.654;14.238;2023-03-14T10:05:17;98241.66;;;13.21;100.00
19210;BME280;9738;51.654;14.238;2023-03-14T10:07:44;98240.59;;;13.22;100.00
19210;BME280;9738;51.654;14.238;2023-03-14T10:10:12;98245.97;;;13.22;100.00
19210;BME280;9738;51.654;14.238;2023-03-14T10:12:38;98239.97;;;13.20;100.00
19210;BME280;9738;51.654;14.238;2023-03-14T10:15:11;98241.31;;;13.11;100.00
19210;BME280;9738;51.654;14.238;2023-03-14T10:17:42;98244.25;;;13.03;100.00
19210;BME280;9738;51.654;14.238;2023-03-14T10:20:35;98240.84;;;12.95;100.00
19210;BME280;9738;51.654;14.238;2023-03-14T10:25:35;98254.22;;;12.95;100.00
19210;BME280;9738;51.654;14.238;2023-03-14T10:28:03;98246.03;;;12.90;100.00
19210;BME280;9738;51.654;14.238;2023-03-14T10:35:42;98253.94;;;12.79;100.00
19210;BME280;9738;51.654;14.238;2023-03-14T10:38:13;98252.25;;;12.84;100.00
19210;BME280;9738;51.654;14.238;2023-03-14T10:40:46;98249.50;;;12.73;100.00
19210;BME280;9738;51.654;14.238;2023-03-14T10:43:17;98240.63;;;12.72;100.00
19210;BME280;9738;51.654;14.238;2023-03-14T10:46:06;98249.09;;;12.69;100.00
19210;BME280;9738;51.654;14.238;2023-03-14T10:48:36;98243.75;;;12.69;100.00
19210;BME280;9738;51.654;14.238;2023-03-14T10:53:42;98246.91;;;12.84;100.00
19210;BME280;9738;51.654;14.238;2023-03-14T10:56:21;98250.25;;;12.80;100.00
19210;BME280;9738;51.654;14.238;2023-03-14T10:58:50;98249.00;;;12.82;100.00
19210;BME280;9738;51.654;14.238;2023-03-14T11:07:15;98221.31;;;12.88;100.00
19210;BME280;9738;51.654;14.238;2023-03-14T11:12:38;98220.13;;;12.84;100.00
19210;BME280;9738;51.654;14.238;2023-03-14T11:15:29;98228.59;;;12.81;100.00
19210;BME280;9738;51.654;14.238;2023-03-14T11:21:21;98234.31;;;12.85;100.00
19210;BME280;9738;51.654;14.238;2023-03-14T11:27:05;98218.06;;;12.86;100.00
19210;BME280;9738;51.654;14.238;2023-03-14T11:29:39;98212.78;;;12.98;100.00
19210;BME280;9738;51.654;14.238;2023-03-14T11:32:14;98215.50;;;12.91;100.00
19210;BME280;9738;51.654;14.238;2023-03-14T11:34:53;98224.09;;;13.00;100.00
19210;BME280;9738;51.654;14.238;2023-03-14T11:37:47;98215.59;;;13.03;100.00
19210;BME280;9738;51.654;14.238;2023-03-14T11:40:23;98211.69;;;13.06;78.99
19210;BME280;9738;51.654;14.238;2023-03-14T11:42:55;98223.97;;;13.13;78.47
19210;BME280;9738;51.654;14.238;2023-03-14T11:45:30;98208.31;;;13.10;77.12
19210;BME280;9738;51.654;14.238;2023-03-14T11:48:35;98216.47;;;13.22;77.13
19210;BME280;9738;51.654;14.238;2023-03-14T11:51:09;98207.94;;;13.32;76.50
19210;BME280;9738;51.654;14.238;2023-03-14T11:53:57;98201.13;;;13.29;76.12
19210;BME280;9738;51.654;14.238;2023-03-14T11:56:47;98212.63;;;13.36;77.71
19210;BME280;9738;51.654;14.238;2023-03-14T11:59:27;98210.03;;;13.30;77.24
19210;BME280;9738;51.654;14.238;2023-03-14T12:04:39;98204.44;;;13.31;79.03
19210;BME280;9738;51.654;14.238;2023-03-14T12:07:15;98192.34;;;13.40;77.97
19210;BME280;9738;51.654;14.238;2023-03-14T12:09:44;98188.50;;;13.36;78.01
19210;BME280;9738;51.654;14.238;2023-03-14T12:12:14;98191.38;;;13.35;76.42
19210;BME280;9738;51.654;14.238;2023-03-14T12:14:46;98183.25;;;13.41;78.40
19210;BME280;9738;51.654;14.238;2023-03-14T12:17:24;98189.25;;;13.43;76.89
19210;BME280;9738;51.654;14.238;2023-03-14T12:22:44;98188.50;;;13.36;75.73
19210;BME280;9738;51.654;14.238;2023-03-14T12:25:17;98180.00;;;13.39;77.21
19210;BME280;9738;51.654;14.238;2023-03-14T12:30:38;98182.66;;;13.58;76.77
19210;BME280;9738;51.654;14.238;2023-03-14T12:35:40;98156.38;;;13.78;75.04
19210;BME280;9738;51.654;14.238;2023-03-14T12:38:14;98164.09;;;13.86;73.99
19210;BME280;9738;51.654;14.238;2023-03-14T12:40:59;98160.84;;;13.84;74.09
19210;BME280;9738;51.654;14.238;2023-03-14T12:43:32;98162.75;;;13.65;71.85
19210;BME280;9738;51.654;14.238;2023-03-14T12:48:45;98163.31;;;13.56;71.42
19210;BME280;9738;51.654;14.238;2023-03-14T12:51:35;98159.13;;;13.41;72.91
19210;BME280;9738;51.654;14.238;2023-03-14T12:59:38;98169.09;;;13.52;71.08
19210;BME280;9738;51.654;14.238;2023-03-14T13:02:28;98156.75;;;13.51;71.08
19210;BME280;9738;51.654;14.238;2023-03-14T13:05:10;98158.47;;;13.46;72.08
19210;BME280;9738;51.654;14.238;2023-03-14T13:10:24;98145.88;;;13.76;73.53
19210;BME280;9738;51.654;14.238;2023-03-14T13:12:58;98133.56;;;13.87;73.35
19210;BME280;9738;51.654;14.238;2023-03-14T13:18:02;98130.09;;;13.98;72.46
19210;BME280;9738;51.654;14.238;2023-03-14T13:20:32;98141.63;;;13.87;71.97
19210;BME280;9738;51.654;14.238;2023-03-14T13:22:59;98134.59;;;13.74;72.39
19210;BME280;9738;51.654;14.238;2023-03-14T13:25:29;98144.16;;;13.52;71.01
19210;BME280;9738;51.654;14.238;2023-03-14T13:27:56;98147.88;;;13.51;73.05
19210;BME280;9738;51.654;14.238;2023-03-14T13:32:49;98144.19;;;13.34;73.60
19210;BME280;9738;51.654;14.238;2023-03-14T13:35:20;98152.69;;;13.31;73.70
19210;BME280;9738;51.654;14.238;2023-03-14T13:37:46;98145.31;;;13.26;74.31
19210;BME280;9738;51.654;14.238;2023-03-14T13:40:26;98156.22;;;13.06;80.37
19210;BME280;9738;51.654;14.238;2023-03-14T13:43:04;98162.97;;;12.90;87.03
19210;BME280;9738;51.654;14.238;2023-03-14T13:45:30;98161.75;;;12.68;89.94
19210;BME280;9738;51.654;14.238;2023-03-14T13:47:57;98177.63;;;12.44;95.25
19210;BME280;9738;51.654;14.238;2023-03-14T13:50:23;98182.69;;;12.28;100.00
19210;BME280;9738;51.654;14.238;2023-03-14T13:52:55;98177.38;;;11.89;100.00
19210;BME280;9738;51.654;14.238;2023-03-14T13:55:22;98167.09;;;11.48;100.00
19210;BME280;9738;51.654;14.238;2023-03-14T13:57:50;98171.94;;;11.20;100.00
19210;BME280;9738;51.654;14.238;2023-03-14T14:00:23;98153.09;;;11.01;100.00